Time;durP1;ratioP1;P1;durP2;ratioP2;P2;SDS_P1;SDS_P2;PMS_P1;PMS_P2;Temp;Humidity;BMP_temperature;BMP_pressure;BME280_temperature;BME280_humidity;BME280_pressure;Samples;Min_cycle;Max_cycle;Signal;HPM_P1;HPM_P2
2021/04/07 00:02:05;;;;;;;5.30;4.80;;;0.60;99.90;;;;;;4989800;28;20212;-68
2021/04/07 00:04:32;;;;;;;4.18;3.75;;;0.60;99.90;;;;;;4988465;28;20252;-68
2021/04/07 00:06:59;;;;;;;6.00;4.80;;;0.70;99.90;;;;;;4989286;28;20552;-68
2021/04/07 00:09:26;;;;;;;5.35;4.30;;;0.70;99.90;;;;;;4989356;28;20294;-67
2021/04/07 00:11:53;;;;;;;5.07;4.57;;;0.70;99.90;;;;;;4989478;28;20227;-68
2021/04/07 00:14:20;;;;;;;4.72;4.25;;;0.70;99.90;;;;;;4989117;28;20203;-67
2021/04/07 00:16:46;;;;;;;5.00;4.50;;;0.60;99.90;;;;;;4989337;28;20423;-67
2021/04/07 00:19:12;;;;;;;4.63;4.22;;;0.60;99.90;;;;;;4989127;28;20196;-68
2021/04/07 00:21:40;;;;;;;4.30;4.00;;;0.60;99.90;;;;;;4989661;28;20299;-68
2021/04/07 00:24:07;;;;;;;5.57;4.40;;;0.60;99.90;;;;;;4988084;28;20204;-68
2021/04/07 00:26:34;;;;;;;5.07;4.18;;;0.60;99.90;;;;;;4989562;28;20207;-68
2021/04/07 00:29:01;;;;;;;6.03;4.45;;;0.60;99.90;;;;;;4989568;28;20207;-67
2021/04/07 00:31:27;;;;;;;5.28;4.25;;;0.60;99.90;;;;;;4989340;28;20611;-68
2021/04/07 00:33:53;;;;;;;4.93;4.38;;;0.60;99.90;;;;;;4987779;28;20202;-67
2021/04/07 00:36:20;;;;;;;5.75;4.50;;;0.60;99.90;;;;;;4987814;28;20208;-68
2021/04/07 00:38:47;;;;;;;4.82;4.43;;;0.60;99.90;;;;;;4989126;28;20235;-68
2021/04/07 00:41:13;;;;;;;4.25;3.85;;;0.60;99.90;;;;;;4988932;28;20577;-68
2021/04/07 00:43:40;;;;;;;5.72;4.25;;;0.60;99.90;;;;;;4988836;28;20553;-67
2021/04/07 00:46:06;;;;;;;4.40;3.78;;;0.60;99.90;;;;;;4986572;28;20283;-67
2021/04/07 00:48:33;;;;;;;3.97;3.15;;;0.60;99.90;;;;;;4986125;28;20296;-68
2021/04/07 00:50:59;;;;;;;5.22;4.15;;;0.60;99.90;;;;;;4988169;28;20247;-67
2021/04/07 00:53:26;;;;;;;4.78;4.38;;;0.60;99.90;;;;;;4988709;28;20203;-68
2021/04/07 00:55:53;;;;;;;3.75;3.45;;;0.60;99.90;;;;;;4986429;28;20609;-68
2021/04/07 00:58:20;;;;;;;5.03;4.13;;;0.50;99.90;;;;;;4988425;28;20685;-67
2021/04/07 01:00:46;;;;;;;5.57;3.35;;;0.50;99.90;;;;;;4989012;28;20233;-68
2021/04/07 01:03:14;;;;;;;4.28;3.92;;;0.40;99.90;;;;;;4988286;28;20354;-67
2021/04/07 01:05:41;;;;;;;4.15;3.75;;;0.40;99.90;;;;;;4986847;28;20214;-68
2021/04/07 01:08:08;;;;;;;4.70;4.30;;;0.50;99.90;;;;;;4988815;28;20357;-67
2021/04/07 01:10:34;;;;;;;4.90;4.45;;;0.50;99.90;;;;;;4987743;28;20214;-67
2021/04/07 01:13:01;;;;;;;4.47;4.05;;;0.50;99.90;;;;;;4987977;28;20267;-68
2021/04/07 01:15:28;;;;;;;4.85;4.43;;;0.60;99.90;;;;;;4987525;28;20212;-67
2021/04/07 01:17:56;;;;;;;5.00;4.50;;;0.60;99.90;;;;;;4984499;28;20211;-66
2021/04/07 01:20:24;;;;;;;4.25;3.72;;;0.50;99.90;;;;;;4987307;28;20293;-67
2021/04/07 01:22:54;;;;;;;4.28;3.97;;;0.60;99.90;;;;;;4988526;28;20603;-67
2021/04/07 01:25:21;;;;;;;4.75;4.15;;;0.60;99.90;;;;;;4986847;28;20697;-67
2021/04/07 01:27:48;;;;;;;5.30;4.60;;;0.60;99.90;;;;;;4988003;28;20204;-67
2021/04/07 01:30:17;;;;;;;4.53;4.13;;;0.50;99.90;;;;;;4986929;28;20215;-67
2021/04/07 01:32:43;;;;;;;4.93;4.43;;;0.50;99.90;;;;;;4985948;28;20231;-67
2021/04/07 01:35:12;;;;;;;5.45;4.53;;;0.60;99.90;;;;;;4986649;28;20210;-67
2021/04/07 01:37:38;;;;;;;7.05;4.95;;;0.50;99.90;;;;;;4987722;28;20311;-67
2021/04/07 01:40:07;;;;;;;5.45;4.82;;;0.40;99.90;;;;;;4980671;28;20203;-68
2021/04/07 01:42:35;;;;;;;5.13;4.40;;;0.40;99.90;;;;;;4987751;28;20222;-68
2021/04/07 01:45:04;;;;;;;4.90;4.40;;;0.40;99.90;;;;;;4987530;28;20207;-67
2021/04/07 01:47:31;;;;;;;5.45;4.60;;;0.50;99.90;;;;;;4987535;28;20204;-67
2021/04/07 01:50:00;;;;;;;5.68;4.68;;;0.50;99.90;;;;;;4987854;28;20578;-67
2021/04/07 01:52:26;;;;;;;4.75;4.35;;;0.50;99.90;;;;;;4987575;28;20231;-67
2021/04/07 01:54:52;;;;;;;6.13;5.07;;;0.40;99.90;;;;;;4986301;28;20197;-67
2021/04/07 01:57:19;;;;;;;7.68;5.28;;;0.40;99.90;;;;;;4986602;28;20293;-66
2021/04/07 01:59:46;;;;;;;7.43;5.05;;;0.40;99.90;;;;;;4987740;28;20273;-67
2021/04/07 02:02:13;;;;;;;5.13;4.60;;;0.50;99.90;;;;;;4987678;28;20333;-67
2021/04/07 02:04:40;;;;;;;4.43;4.03;;;0.40;99.90;;;;;;4985701;28;20310;-68
2021/04/07 02:07:11;;;;;;;4.38;3.97;;;0.50;99.90;;;;;;4987234;28;20302;-67
2021/04/07 02:09:37;;;;;;;4.50;4.10;;;0.50;99.90;;;;;;4985862;28;20246;-68
2021/04/07 02:12:04;;;;;;;4.68;4.28;;;0.50;99.90;;;;;;4983253;28;20318;-68
2021/04/07 02:14:31;;;;;;;5.57;4.97;;;0.50;99.90;;;;;;4986300;28;20576;-67
2021/04/07 02:17:00;;;;;;;6.63;4.35;;;0.50;99.90;;;;;;4986868;28;20211;-67
2021/04/07 02:19:28;;;;;;;9.07;4.80;;;0.40;99.90;;;;;;4986339;28;20218;-67
2021/04/07 02:22:04;;;;;;;5.18;4.60;;;0.30;99.90;;;;;;4987331;28;20208;-67
2021/04/07 02:24:30;;;;;;;5.35;4.72;;;0.30;99.90;;;;;;4985827;28;20211;-67
2021/04/07 02:26:57;;;;;;;4.82;4.32;;;0.30;99.90;;;;;;4986853;28;20204;-67
2021/04/07 02:29:23;;;;;;;8.40;5.05;;;0.30;99.90;;;;;;4986705;28;20234;-68
2021/04/07 02:31:50;;;;;;;5.82;4.88;;;0.30;99.90;;;;;;4986734;28;20231;-68
2021/04/07 02:34:17;;;;;;;5.78;5.18;;;0.20;99.90;;;;;;4986141;28;20549;-68
2021/04/07 02:36:43;;;;;;;5.68;5.03;;;0.20;99.90;;;;;;4987138;28;20282;-68
2021/04/07 02:39:09;;;;;;;5.72;5.20;;;0.20;99.90;;;;;;4986754;28;20223;-68
2021/04/07 02:41:36;;;;;;;6.22;5.38;;;0.20;99.90;;;;;;4986648;28;20204;-68
2021/04/07 02:44:02;;;;;;;6.38;5.78;;;0.20;99.90;;;;;;4986187;28;20236;-68
2021/04/07 02:46:28;;;;;;;8.57;5.78;;;0.20;99.90;;;;;;4986247;28;20216;-67
2021/04/07 02:48:55;;;;;;;7.43;5.60;;;0.10;99.90;;;;;;4986735;28;20199;-68
2021/04/07 02:51:22;;;;;;;5.70;5.20;;;0.10;99.90;;;;;;4985696;28;20600;-68
2021/04/07 02:53:48;;;;;;;5.95;4.90;;;0.10;99.90;;;;;;4983727;28;20226;-69
2021/04/07 02:56:14;;;;;;;6.00;5.45;;;0.00;99.90;;;;;;4986042;28;20296;-68
2021/04/07 02:58:41;;;;;;;8.52;5.13;;;0.00;99.90;;;;;;4986437;28;20299;-68
2021/04/07 03:01:07;;;;;;;7.25;5.60;;;0.00;99.90;;;;;;4986571;28;20295;-68
2021/04/07 03:03:33;;;;;;;5.93;4.93;;;0.00;99.90;;;;;;4986508;28;20562;-68
2021/04/07 03:06:00;;;;;;;8.50;5.88;;;0.00;99.90;;;;;;4985123;28;20199;-67
2021/04/07 03:08:27;;;;;;;7.47;6.25;;;0.10;99.90;;;;;;4984263;28;20737;-68
2021/04/07 03:10:53;;;;;;;6.22;5.65;;;0.10;99.90;;;;;;4981353;28;20290;-68
2021/04/07 03:13:19;;;;;;;8.77;5.78;;;0.10;99.90;;;;;;4986910;28;20211;-68
2021/04/07 03:15:46;;;;;;;6.30;5.45;;;0.10;99.90;;;;;;4987755;28;20212;-68
2021/04/07 03:18:12;;;;;;;6.47;5.88;;;0.10;99.90;;;;;;4990477;28;20688;-68
2021/04/07 03:20:39;;;;;;;7.15;4.78;;;0.20;99.90;;;;;;4990076;28;20218;-68
2021/04/07 03:23:05;;;;;;;8.30;5.55;;;0.30;99.90;;;;;;4990386;28;20255;-68
2021/04/07 03:25:32;;;;;;;7.03;5.43;;;0.30;99.90;;;;;;4994709;28;20323;-68
2021/04/07 03:27:58;;;;;;;6.75;5.68;;;0.30;99.90;;;;;;4990629;28;20298;-68
2021/04/07 03:30:25;;;;;;;6.68;5.65;;;0.30;99.90;;;;;;4989799;28;20218;-68
2021/04/07 03:32:51;;;;;;;6.53;5.63;;;0.30;99.90;;;;;;4990502;28;20233;-68
2021/04/07 03:35:18;;;;;;;6.68;6.03;;;0.30;99.90;;;;;;4988734;28;20220;-67
2021/04/07 03:37:44;;;;;;;7.13;5.70;;;0.40;99.90;;;;;;4989603;28;20215;-68
2021/04/07 03:40:11;;;;;;;6.82;4.72;;;0.40;99.90;;;;;;4989803;28;20286;-68
2021/04/07 03:42:38;;;;;;;5.85;4.93;;;0.40;99.90;;;;;;4989942;28;20306;-68
2021/04/07 03:45:06;;;;;;;5.38;4.93;;;0.40;99.90;;;;;;4989293;28;20299;-68
2021/04/07 03:47:32;;;;;;;6.20;5.47;;;0.40;99.90;;;;;;4990417;28;20304;-68
2021/04/07 03:49:58;;;;;;;4.95;4.45;;;0.40;99.90;;;;;;4989780;28;20262;-67
2021/04/07 03:52:25;;;;;;;6.20;4.00;;;0.40;99.90;;;;;;4989781;28;20239;-68
2021/04/07 03:54:56;;;;;;;5.32;4.85;;;0.40;99.90;;;;;;4989095;28;20203;-68
2021/04/07 03:57:22;;;;;;;5.05;3.90;;;0.40;99.90;;;;;;4989313;28;20235;-68
2021/04/07 03:59:49;;;;;;;4.68;4.00;;;0.40;99.90;;;;;;4989307;28;20218;-68
2021/04/07 04:02:16;;;;;;;5.57;4.38;;;0.50;99.90;;;;;;4989951;28;20195;-68
2021/04/07 04:04:42;;;;;;;6.05;3.80;;;0.50;99.90;;;;;;4988203;28;20579;-68
2021/04/07 04:07:08;;;;;;;4.78;4.28;;;0.50;99.90;;;;;;4989263;28;20214;-67
2021/04/07 04:09:35;;;;;;;7.70;4.75;;;0.50;99.90;;;;;;4989347;28;20269;-68
2021/04/07 04:12:01;;;;;;;5.07;4.20;;;0.50;99.90;;;;;;4988781;28;20271;-68
2021/04/07 04:14:27;;;;;;;5.38;3.97;;;0.40;99.90;;;;;;4988513;28;20214;-67
2021/04/07 04:16:54;;;;;;;4.95;3.85;;;0.50;99.90;;;;;;4988309;28;20215;-68
2021/04/07 04:19:21;;;;;;;5.35;3.90;;;0.50;99.90;;;;;;4989120;28;20582;-67
2021/04/07 04:21:47;;;;;;;4.50;3.40;;;0.50;99.90;;;;;;4989228;28;20298;-68
2021/04/07 04:24:13;;;;;;;3.92;3.55;;;0.50;99.90;;;;;;4988517;28;20239;-68
2021/04/07 04:26:40;;;;;;;7.53;3.85;;;0.50;99.90;;;;;;4987984;28;20295;-68
2021/04/07 04:29:06;;;;;;;4.47;4.07;;;0.50;99.90;;;;;;4989104;28;20295;-68
2021/04/07 04:31:32;;;;;;;5.38;3.42;;;0.50;99.90;;;;;;4989058;28;20227;-68
2021/04/07 04:34:00;;;;;;;4.95;3.38;;;0.50;99.90;;;;;;4988042;28;20208;-67
2021/04/07 04:36:26;;;;;;;5.45;3.50;;;0.50;99.90;;;;;;4988618;28;20204;-68
2021/04/07 04:38:52;;;;;;;4.05;3.05;;;0.40;99.90;;;;;;4989180;28;20206;-68
2021/04/07 04:41:18;;;;;;;4.40;3.85;;;0.40;99.90;;;;;;4988636;28;20754;-68
2021/04/07 04:43:45;;;;;;;5.65;3.90;;;0.40;99.90;;;;;;4988889;28;20234;-68
2021/04/07 04:46:11;;;;;;;5.53;4.93;;;0.40;99.90;;;;;;4988643;28;20364;-68
2021/04/07 04:48:37;;;;;;;4.00;3.70;;;0.40;99.90;;;;;;4988778;28;20207;-68
2021/04/07 04:51:05;;;;;;;6.60;3.22;;;0.40;99.90;;;;;;4984806;28;20204;-68
2021/04/07 04:53:32;;;;;;;3.85;3.38;;;0.40;99.90;;;;;;4988385;28;20215;-68
2021/04/07 04:55:58;;;;;;;3.10;2.80;;;0.40;99.90;;;;;;4987266;28;20199;-68
2021/04/07 04:58:25;;;;;;;4.97;3.53;;;0.40;99.90;;;;;;4988558;28;20299;-68
2021/04/07 05:00:51;;;;;;;3.60;3.30;;;0.40;99.90;;;;;;4988385;28;20200;-68
2021/04/07 05:03:17;;;;;;;3.40;2.53;;;0.40;99.90;;;;;;4987987;28;20685;-67
2021/04/07 05:05:43;;;;;;;3.20;2.90;;;0.40;99.90;;;;;;4986955;28;20687;-68
2021/04/07 05:08:11;;;;;;;3.20;2.88;;;0.50;99.90;;;;;;4986287;28;20235;-69
2021/04/07 05:10:37;;;;;;;4.18;3.17;;;0.50;99.90;;;;;;4992214;28;20215;-68
2021/04/07 05:13:03;;;;;;;2.85;2.65;;;0.50;99.90;;;;;;4988418;28;20227;-68
2021/04/07 05:15:29;;;;;;;3.90;2.90;;;0.50;99.90;;;;;;4986253;28;20213;-68
2021/04/07 05:17:56;;;;;;;3.70;3.40;;;0.60;99.90;;;;;;4988712;28;20299;-68
2021/04/07 05:20:22;;;;;;;4.03;3.58;;;0.60;99.90;;;;;;4988105;28;20299;-68
2021/04/07 05:22:49;;;;;;;4.32;2.92;;;0.60;99.90;;;;;;4988332;28;20274;-68
2021/04/07 05:25:16;;;;;;;3.15;2.47;;;0.70;99.90;;;;;;4983738;28;20246;-69
2021/04/07 05:27:42;;;;;;;2.95;2.75;;;0.70;99.90;;;;;;4988438;28;20211;-69
2021/04/07 05:30:09;;;;;;;5.22;3.60;;;0.80;99.90;;;;;;4987791;28;20295;-69
2021/04/07 05:32:36;;;;;;;5.18;3.30;;;0.80;99.90;;;;;;4987134;28;20224;-68
2021/04/07 05:35:03;;;;;;;3.00;2.70;;;0.80;99.90;;;;;;4986162;28;20215;-69
2021/04/07 05:37:29;;;;;;;4.25;2.70;;;0.80;99.90;;;;;;4986914;28;20212;-69
2021/04/07 05:39:56;;;;;;;3.97;2.83;;;0.90;99.90;;;;;;4987072;28;20204;-68
2021/04/07 05:42:23;;;;;;;3.45;3.15;;;0.90;99.60;;;;;;4991893;28;20218;-68
2021/04/07 05:44:49;;;;;;;2.88;2.67;;;0.90;99.60;;;;;;4987111;28;20291;-69
2021/04/07 05:47:15;;;;;;;2.88;2.67;;;0.90;99.90;;;;;;4987946;28;20207;-69
2021/04/07 05:49:42;;;;;;;2.50;2.30;;;1.00;99.90;;;;;;4988047;28;20295;-68
2021/04/07 05:52:08;;;;;;;3.45;2.40;;;1.00;99.70;;;;;;4987982;28;20759;-69
2021/04/07 05:54:34;;;;;;;2.80;2.55;;;1.10;99.30;;;;;;4984137;28;20262;-68
2021/04/07 05:57:01;;;;;;;3.10;2.47;;;1.10;99.10;;;;;;4987424;28;20208;-69
2021/04/07 05:59:28;;;;;;;3.17;2.97;;;1.20;98.70;;;;;;4987323;28;20208;-69
2021/04/07 06:01:54;;;;;;;2.75;2.55;;;1.20;98.50;;;;;;4987943;28;20200;-69
2021/04/07 06:04:20;;;;;;;3.50;3.15;;;1.30;98.50;;;;;;4986617;28;20227;-68
2021/04/07 06:06:47;;;;;;;5.15;2.53;;;1.30;98.70;;;;;;4987124;28;20307;-68
2021/04/07 06:09:13;;;;;;;3.88;2.70;;;1.20;98.50;;;;;;4988070;28;20200;-69
2021/04/07 06:11:39;;;;;;;2.70;2.50;;;1.40;98.60;;;;;;4991350;28;20338;-69
2021/04/07 06:14:06;;;;;;;3.50;2.40;;;1.30;97.90;;;;;;4987700;28;20215;-69
2021/04/07 06:16:33;;;;;;;3.30;3.00;;;1.40;97.90;;;;;;4987371;28;20210;-69
2021/04/07 06:19:00;;;;;;;3.38;3.08;;;1.40;97.40;;;;;;4987766;28;20272;-68
2021/04/07 06:21:26;;;;;;;2.78;2.58;;;1.40;97.40;;;;;;4985447;28;20818;-69
2021/04/07 06:23:52;;;;;;;5.93;3.13;;;1.50;97.50;;;;;;4987046;28;20291;-68
2021/04/07 06:26:19;;;;;;;3.97;2.92;;;1.50;96.80;;;;;;4986463;28;20207;-68
2021/04/07 06:28:45;;;;;;;7.13;3.38;;;1.50;96.80;;;;;;4988393;28;20210;-68
2021/04/07 06:31:11;;;;;;;2.63;2.40;;;1.50;96.80;;;;;;4987148;28;20200;-68
2021/04/07 06:33:38;;;;;;;3.10;2.70;;;1.50;96.60;;;;;;4986813;28;20231;-68
2021/04/07 06:36:06;;;;;;;3.65;2.50;;;1.60;96.60;;;;;;4986839;28;20657;-68
2021/04/07 06:38:34;;;;;;;3.80;2.70;;;1.70;96.20;;;;;;4987329;28;20204;-68
2021/04/07 06:41:01;;;;;;;2.58;2.38;;;1.80;95.70;;;;;;4986351;28;20212;-69
2021/04/07 06:43:31;;;;;;;1.98;1.88;;;2.00;95.60;;;;;;4987034;28;20204;-69
2021/04/07 06:45:57;;;;;;;4.40;2.03;;;2.60;94.60;;;;;;4983815;28;20711;-68
2021/04/07 06:48:25;;;;;;;2.17;2.08;;;3.30;93.00;;;;;;4978034;28;20215;-68
2021/04/07 06:50:53;;;;;;;2.20;2.00;;;3.20;92.00;;;;;;4984980;28;20258;-68
2021/04/07 06:53:24;;;;;;;1.85;1.75;;;3.00;92.00;;;;;;4989986;28;20305;-68
2021/04/07 06:55:50;;;;;;;4.03;2.42;;;2.90;91.70;;;;;;4984424;28;20222;-68
2021/04/07 06:58:17;;;;;;;2.58;2.00;;;3.30;91.60;;;;;;4973528;28;20731;-68
2021/04/07 07:00:43;;;;;;;4.25;2.22;;;3.50;91.10;;;;;;4981956;28;20214;-68
2021/04/07 07:03:11;;;;;;;4.35;2.05;;;3.80;90.50;;;;;;4985498;28;20242;-68
2021/04/07 07:05:41;;;;;;;2.67;1.70;;;3.50;89.70;;;;;;4985258;28;20207;-69
2021/04/07 07:08:10;;;;;;;2.75;1.80;;;3.30;89.80;;;;;;4982497;28;20203;-68
2021/04/07 07:10:41;;;;;;;3.00;1.77;;;3.40;90.00;;;;;;4985428;28;20226;-68
2021/04/07 07:13:09;;;;;;;3.55;2.05;;;3.40;88.60;;;;;;4984127;28;20293;-68
2021/04/07 07:15:37;;;;;;;2.92;2.10;;;3.20;89.00;;;;;;4984854;28;20210;-69
2021/04/07 07:18:04;;;;;;;2.53;2.00;;;3.30;90.10;;;;;;4986187;28;20211;-69
2021/04/07 07:20:33;;;;;;;4.13;1.90;;;3.40;89.20;;;;;;4985680;28;20203;-69
2021/04/07 07:22:59;;;;;;;5.05;2.10;;;3.50;89.20;;;;;;4986686;28;20323;-68
2021/04/07 07:25:27;;;;;;;1.85;1.75;;;3.40;88.90;;;;;;4984451;28;20214;-68
2021/04/07 07:27:59;;;;;;;3.47;1.83;;;3.60;89.20;;;;;;4977570;28;20226;-69
2021/04/07 07:30:35;;;;;;;1.92;1.55;;;3.50;87.90;;;;;;4979718;28;20650;-69
2021/04/07 07:33:01;;;;;;;3.63;1.63;;;3.60;87.60;;;;;;4982446;28;20238;-69
2021/04/07 07:35:27;;;;;;;3.28;2.03;;;3.60;87.30;;;;;;4983093;28;20295;-68
2021/04/07 07:38:00;;;;;;;1.90;1.80;;;3.70;87.60;;;;;;4976744;28;20212;-68
2021/04/07 07:40:27;;;;;;;2.42;2.22;;;3.30;85.90;;;;;;4982448;28;20210;-68
2021/04/07 07:42:54;;;;;;;3.25;2.13;;;3.20;87.50;;;;;;4982946;28;20559;-68
2021/04/07 07:45:30;;;;;;;3.70;2.83;;;3.60;88.20;;;;;;4984498;28;20218;-68
2021/04/07 07:48:07;;;;;;;2.67;2.30;;;3.90;88.10;;;;;;4982602;28;20282;-68
2021/04/07 07:50:38;;;;;;;5.10;2.35;;;4.20;87.30;;;;;;4984260;28;20579;-69
2021/04/07 07:53:12;;;;;;;4.00;2.65;;;4.10;85.80;;;;;;4982277;28;20235;-69
2021/04/07 07:55:40;;;;;;;3.50;3.00;;;3.90;87.50;;;;;;4982619;28;20638;-69
2021/04/07 07:58:07;;;;;;;2.70;2.50;;;3.80;87.80;;;;;;4985556;28;20661;-68
2021/04/07 08:00:33;;;;;;;4.47;3.00;;;3.80;87.70;;;;;;4973635;28;20625;-70
2021/04/07 08:03:08;;;;;;;2.40;2.20;;;3.90;87.10;;;;;;4981439;28;20208;-69
2021/04/07 08:05:35;;;;;;;3.92;2.75;;;3.90;87.60;;;;;;4985322;28;20270;-69
2021/04/07 08:08:03;;;;;;;2.78;2.58;;;3.60;88.00;;;;;;4988863;28;20243;-69
2021/04/07 08:10:30;;;;;;;2.45;2.33;;;3.50;88.60;;;;;;4988989;28;20200;-68
2021/04/07 08:13:00;;;;;;;3.28;2.65;;;3.10;88.20;;;;;;4988616;28;20236;-69
2021/04/07 08:15:28;;;;;;;2.83;2.63;;;3.00;89.80;;;;;;4986831;28;20212;-69
2021/04/07 08:17:56;;;;;;;3.88;3.00;;;2.90;90.20;;;;;;4982581;28;20212;-68
2021/04/07 08:20:24;;;;;;;3.63;2.63;;;2.80;90.90;;;;;;4988050;28;20590;-69
2021/04/07 08:22:52;;;;;;;6.38;2.50;;;2.90;91.00;;;;;;4988169;28;20203;-68
2021/04/07 08:25:20;;;;;;;2.25;1.90;;;2.90;90.20;;;;;;4987705;28;20246;-69
2021/04/07 08:27:51;;;;;;;5.10;2.83;;;2.90;90.00;;;;;;4988098;28;20211;-68
2021/04/07 08:30:20;;;;;;;3.25;2.55;;;2.90;90.10;;;;;;4986681;28;20203;-68
2021/04/07 08:32:49;;;;;;;2.60;2.40;;;3.40;90.30;;;;;;4988889;28;20948;-68
2021/04/07 08:35:17;;;;;;;2.58;2.20;;;3.60;89.10;;;;;;4986772;28;20208;-68
2021/04/07 08:37:43;;;;;;;3.90;2.22;;;3.80;89.20;;;;;;4989036;28;20296;-68
2021/04/07 08:40:12;;;;;;;4.70;3.30;;;3.80;87.40;;;;;;4987602;28;20222;-67
2021/04/07 08:42:40;;;;;;;2.75;2.55;;;3.80;88.30;;;;;;4988363;28;20290;-68
2021/04/07 08:45:09;;;;;;;2.97;2.70;;;3.80;88.50;;;;;;4981188;28;20212;-67
2021/04/07 08:47:44;;;;;;;4.25;2.22;;;4.00;88.90;;;;;;4988856;28;20257;-68
2021/04/07 08:50:13;;;;;;;2.42;2.05;;;3.90;87.90;;;;;;4984626;28;20204;-68
2021/04/07 08:52:45;;;;;;;2.38;2.20;;;4.00;88.50;;;;;;4988566;28;20627;-67
2021/04/07 08:55:17;;;;;;;2.40;2.20;;;4.00;89.40;;;;;;4987319;28;20239;-68
2021/04/07 08:57:44;;;;;;;2.65;2.45;;;3.90;89.40;;;;;;4988382;28;20223;-68
2021/04/07 09:00:13;;;;;;;2.25;2.10;;;3.90;90.40;;;;;;4988375;28;20207;-68
2021/04/07 09:02:51;;;;;;;1.80;1.70;;;3.70;90.30;;;;;;4988089;28;20290;-68
2021/04/07 09:05:29;;;;;;;3.95;2.53;;;3.70;90.40;;;;;;4984030;28;20231;-68
2021/04/07 09:07:57;;;;;;;3.13;2.83;;;3.80;90.80;;;;;;4987977;28;20635;-68
2021/04/07 09:10:24;;;;;;;3.63;2.63;;;4.10;90.70;;;;;;4984793;28;20915;-67
2021/04/07 09:12:52;;;;;;;3.58;2.55;;;4.20;90.10;;;;;;4987471;28;20818;-67
2021/04/07 09:15:22;;;;;;;2.10;1.90;;;4.20;90.50;;;;;;4987894;28;20626;-67
2021/04/07 09:17:51;;;;;;;3.28;2.97;;;4.50;89.00;;;;;;4986444;28;20211;-68
2021/04/07 09:20:52;;;;;;;2.50;2.30;;;4.60;88.80;;;;;;4986367;28;20669;-67
2021/04/07 09:23:24;;;;;;;3.83;3.00;;;4.10;88.90;;;;;;4927286;29;20202;-68
2021/04/07 09:25:53;;;;;;;5.05;3.55;;;3.90;90.60;;;;;;4976641;28;20203;-67
2021/04/07 09:28:31;;;;;;;3.13;2.83;;;3.60;91.50;;;;;;4987937;28;20204;-68
2021/04/07 09:31:10;;;;;;;3.00;2.78;;;3.30;92.10;;;;;;4988125;28;20192;-68
2021/04/07 09:33:45;;;;;;;5.30;2.45;;;3.30;92.80;;;;;;4986578;28;20266;-68
2021/04/07 09:36:13;;;;;;;3.13;2.55;;;3.30;93.30;;;;;;4985793;28;20239;-68
2021/04/07 09:38:44;;;;;;;3.33;3.03;;;3.70;93.90;;;;;;4987127;28;20302;-68
2021/04/07 09:41:13;;;;;;;5.13;2.83;;;3.60;94.00;;;;;;4981931;28;20299;-68
2021/04/07 09:43:41;;;;;;;3.28;2.97;;;3.50;93.80;;;;;;4986795;28;20303;-68
2021/04/07 09:46:08;;;;;;;2.40;2.20;;;3.50;93.00;;;;;;4986251;28;20211;-68
2021/04/07 09:48:45;;;;;;;2.55;2.35;;;3.60;93.10;;;;;;4985693;28;20212;-68
2021/04/07 09:51:22;;;;;;;3.10;2.80;;;3.70;93.00;;;;;;4984507;28;20318;-68
2021/04/07 09:53:51;;;;;;;2.53;2.33;;;3.90;91.30;;;;;;4993076;28;20242;-67
2021/04/07 09:56:17;;;;;;;2.15;1.80;;;4.00;90.50;;;;;;4981561;28;20621;-67
2021/04/07 09:58:46;;;;;;;3.28;2.92;;;4.30;89.90;;;;;;4984711;28;20365;-68
2021/04/07 10:01:14;;;;;;;2.90;2.70;;;4.50;88.20;;;;;;4987093;28;20207;-68
2021/04/07 10:03:48;;;;;;;2.90;2.70;;;4.70;88.10;;;;;;4987283;28;20588;-68
2021/04/07 10:06:23;;;;;;;3.30;3.08;;;4.80;87.50;;;;;;4990262;28;20207;-67
2021/04/07 10:09:01;;;;;;;2.88;2.67;;;5.30;85.50;;;;;;4987384;28;20217;-68
2021/04/07 10:11:28;;;;;;;4.90;2.60;;;5.40;84.40;;;;;;4984336;28;20607;-67
2021/04/07 10:13:58;;;;;;;3.40;2.85;;;5.20;83.80;;;;;;4983594;28;20669;-69
2021/04/07 10:16:25;;;;;;;2.88;2.67;;;5.30;85.00;;;;;;4982285;28;20215;-68
2021/04/07 10:18:55;;;;;;;2.80;2.60;;;5.70;84.60;;;;;;4987930;28;20654;-69
2021/04/07 10:21:22;;;;;;;2.90;2.60;;;5.90;83.20;;;;;;4986925;28;20239;-68
2021/04/07 10:23:48;;;;;;;3.90;2.83;;;5.70;80.70;;;;;;4985833;28;20204;-68
2021/04/07 10:26:16;;;;;;;3.85;3.55;;;5.60;82.10;;;;;;4985629;28;20323;-67
2021/04/07 10:28:54;;;;;;;2.70;2.50;;;5.20;80.80;;;;;;4986143;28;20207;-68
2021/04/07 10:31:20;;;;;;;4.00;2.38;;;5.10;81.80;;;;;;4978065;28;20580;-67
2021/04/07 10:33:46;;;;;;;2.85;2.60;;;5.00;83.50;;;;;;4986437;28;20418;-68
2021/04/07 10:36:13;;;;;;;2.60;2.25;;;4.80;83.70;;;;;;4982870;28;20206;-68
2021/04/07 10:38:40;;;;;;;2.42;2.20;;;4.40;83.70;;;;;;4979523;28;20299;-69
2021/04/07 10:41:07;;;;;;;2.83;2.53;;;4.30;85.50;;;;;;4985912;28;20218;-68
2021/04/07 10:43:34;;;;;;;2.85;2.30;;;4.10;86.20;;;;;;4986057;28;20208;-67
2021/04/07 10:46:03;;;;;;;2.63;2.28;;;3.90;87.90;;;;;;4983959;28;20830;-68
2021/04/07 10:48:29;;;;;;;3.25;2.50;;;4.00;88.80;;;;;;4986156;28;20300;-67
2021/04/07 10:50:58;;;;;;;2.38;2.22;;;4.10;89.60;;;;;;4985915;28;20206;-67
2021/04/07 10:53:29;;;;;;;3.40;2.60;;;4.20;90.10;;;;;;4985800;28;21012;-67
2021/04/07 10:55:56;;;;;;;4.53;2.60;;;4.20;90.80;;;;;;4983712;28;20794;-69
2021/04/07 10:58:27;;;;;;;4.45;3.25;;;4.60;91.30;;;;;;4986023;28;20207;-68
2021/04/07 11:00:54;;;;;;;2.92;2.35;;;4.80;91.20;;;;;;4985953;28;20210;-68
2021/04/07 11:03:31;;;;;;;2.00;1.75;;;4.90;89.30;;;;;;4986063;28;20286;-68
2021/04/07 11:05:57;;;;;;;2.47;1.92;;;4.70;85.10;;;;;;4982973;28;20690;-68
2021/04/07 11:08:35;;;;;;;3.42;2.03;;;4.80;86.40;;;;;;4984401;28;20298;-68
2021/04/07 11:11:02;;;;;;;2.67;2.47;;;5.10;85.80;;;;;;4985293;28;20226;-68
2021/04/07 11:13:30;;;;;;;2.55;2.17;;;5.30;84.80;;;;;;4982030;28;20240;-68
2021/04/07 11:16:09;;;;;;;2.28;1.92;;;5.80;85.90;;;;;;4984897;28;20215;-68
2021/04/07 11:18:38;;;;;;;2.33;2.13;;;5.90;83.30;;;;;;4985356;28;20204;-68
2021/04/07 11:21:06;;;;;;;2.35;2.15;;;6.10;82.10;;;;;;4986325;28;21039;-68
2021/04/07 11:23:32;;;;;;;3.20;2.20;;;6.20;81.30;;;;;;4985279;28;20231;-68
2021/04/07 11:25:59;;;;;;;2.00;1.80;;;6.00;78.40;;;;;;4985038;28;20202;-67
2021/04/07 11:28:26;;;;;;;2.25;1.95;;;5.60;77.60;;;;;;4985828;28;20208;-68
2021/04/07 11:31:06;;;;;;;2.20;2.00;;;5.70;79.70;;;;;;4985505;28;20299;-68
2021/04/07 11:33:45;;;;;;;4.57;2.05;;;5.90;78.00;;;;;;4985903;28;21101;-68
2021/04/07 11:36:26;;;;;;;1.88;1.77;;;5.90;78.00;;;;;;4984249;28;20671;-68
2021/04/07 11:38:55;;;;;;;1.98;1.88;;;5.80;76.40;;;;;;4983718;28;20215;-68
2021/04/07 11:41:52;;;;;;;2.33;2.10;;;5.70;76.50;;;;;;4988527;28;20295;-68
2021/04/07 11:44:29;;;;;;;4.60;2.03;;;5.80;77.40;;;;;;4987902;28;20207;-69
2021/04/07 11:46:56;;;;;;;2.20;2.10;;;5.50;75.90;;;;;;4987795;28;20295;-67
2021/04/07 11:49:22;;;;;;;1.85;1.70;;;5.20;75.40;;;;;;4987877;28;20250;-68
2021/04/07 11:51:49;;;;;;;2.67;2.20;;;5.40;76.10;;;;;;4989941;28;20299;-69
2021/04/07 11:54:15;;;;;;;2.33;2.13;;;5.50;75.60;;;;;;4988663;28;20224;-68
2021/04/07 11:56:45;;;;;;;3.10;2.55;;;6.00;75.40;;;;;;4987815;28;20665;-68
2021/04/07 11:59:12;;;;;;;3.45;2.67;;;6.30;74.30;;;;;;4987695;28;20219;-68
2021/04/07 12:01:39;;;;;;;2.15;1.95;;;6.30;72.40;;;;;;4989030;28;20208;-68
2021/04/07 12:04:06;;;;;;;2.15;1.75;;;6.10;72.60;;;;;;4989321;28;20204;-68
2021/04/07 12:06:32;;;;;;;1.75;1.65;;;5.60;70.30;;;;;;4985985;28;20797;-67
2021/04/07 12:08:59;;;;;;;2.42;2.22;;;5.60;73.10;;;;;;4987554;28;20208;-68
2021/04/07 12:11:25;;;;;;;2.10;1.85;;;5.40;73.30;;;;;;4986438;28;20299;-67
2021/04/07 12:13:52;;;;;;;2.72;2.30;;;5.40;74.60;;;;;;4988202;28;20234;-67
2021/04/07 12:16:18;;;;;;;2.25;1.95;;;5.30;74.60;;;;;;4988124;28;20311;-68
2021/04/07 12:18:46;;;;;;;3.17;2.35;;;5.00;73.40;;;;;;4988614;28;20304;-68
2021/04/07 12:21:12;;;;;;;2.97;2.45;;;4.80;74.30;;;;;;4988347;28;20200;-67
2021/04/07 12:23:39;;;;;;;3.83;2.40;;;4.80;73.80;;;;;;4986944;28;20211;-68
2021/04/07 14:16:10;;;;;;;2.75;2.10;;;4.30;83.20;;;;;;5421114;23;20986;-68
2021/04/07 14:18:37;;;;;;;3.63;2.55;;;4.30;83.00;;;;;;4907989;29;20293;-68
2021/04/07 14:21:04;;;;;;;2.53;2.33;;;4.40;83.60;;;;;;4908445;29;20245;-67
2021/04/07 14:23:31;;;;;;;2.75;2.55;;;4.40;84.20;;;;;;4907409;29;20297;-68
2021/04/07 14:25:57;;;;;;;6.07;2.55;;;4.40;85.30;;;;;;4907581;29;20731;-68
2021/04/07 14:28:24;;;;;;;3.17;2.38;;;4.30;85.00;;;;;;4907541;29;20210;-68
2021/04/07 14:30:50;;;;;;;2.25;2.08;;;4.20;84.00;;;;;;4909770;29;20815;-69
2021/04/07 14:33:19;;;;;;;2.25;2.00;;;4.10;84.30;;;;;;4909199;29;20690;-69
2021/04/07 14:35:46;;;;;;;2.55;2.17;;;4.00;83.20;;;;;;4906991;29;20210;-68
2021/04/07 16:24:05;;;;;;;6.93;5.22;;;1.90;99.90;;;;;;5105319;23;20245;-65
2021/04/07 16:26:32;;;;;;;5.10;4.53;;;1.90;99.90;;;;;;4910256;29;20218;-66
2021/04/07 16:28:59;;;;;;;5.32;4.82;;;1.90;99.90;;;;;;4913527;29;20207;-65
2021/04/07 16:31:26;;;;;;;6.13;5.53;;;1.70;99.90;;;;;;4913234;29;20225;-65
2021/04/07 16:33:52;;;;;;;5.18;4.72;;;1.70;99.90;;;;;;4912188;29;20241;-66
2021/04/07 16:36:19;;;;;;;6.47;5.88;;;1.70;99.90;;;;;;4912774;29;20302;-66
2021/04/07 16:38:46;;;;;;;5.60;5.10;;;1.70;99.90;;;;;;4912691;29;20233;-66